Terminal Aerodrome Forecast
Issued by NWS Paducah, KY

Home | Current Version | Previous Version | Graphics & Text | Print | Product List | Glossary On
Versions: 1 2 3 4 5 6 7 8 9 10 11 12 13 14 15 16 17 18 19
000
FTUS43 KPAH 220500
TAFEVV
TAF
KEVV 220540Z 2206/2306 09006KT P6SM SKC
     FM220900 11007KT P6SM OVC070
     FM221200 14007KT P6SM BKN020 OVC070
      TEMPO 2213/2217 4SM -SHRA BR BKN013 OVC035
     FM221900 15006KT 4SM -RA BR BKN013 OVC020
     FM230100 15004KT 3SM -RA OVC008=

USA.gov is the U.S. government's official web portal to all federal, state and local government web resources and services.